sensor_id;sensor_type;location;lat;lon;timestamp;P1;durP1;ratioP1;P2;durP2;ratioP2
15645;SDS011;7922;43.622;1.476;2022-09-09T00:09:25;3.67;;;2.13;;
15645;SDS011;7922;43.622;1.476;2022-09-09T00:12:05;5.53;;;2.40;;
15645;SDS011;7922;43.622;1.476;2022-09-09T00:17:19;3.43;;;2.13;;
15645;SDS011;7922;43.622;1.476;2022-09-09T00:19:56;4.23;;;2.13;;
15645;SDS011;7922;43.622;1.476;2022-09-09T00:22:28;3.47;;;2.03;;
15645;SDS011;7922;43.622;1.476;2022-09-09T00:25:08;3.30;;;1.83;;
15645;SDS011;7922;43.622;1.476;2022-09-09T00:27:44;3.53;;;1.97;;
15645;SDS011;7922;43.622;1.476;2022-09-09T00:32:47;4.70;;;2.10;;
15645;SDS011;7922;43.622;1.476;2022-09-09T00:37:43;4.03;;;2.07;;
15645;SDS011;7922;43.622;1.476;2022-09-09T00:40:32;2.40;;;1.80;;
15645;SDS011;7922;43.622;1.476;2022-09-09T00:49:00;6.07;;;2.30;;
15645;SDS011;7922;43.622;1.476;2022-09-09T00:57:37;4.37;;;2.00;;
15645;SDS011;7922;43.622;1.476;2022-09-09T01:00:17;3.60;;;2.27;;
15645;SDS011;7922;43.622;1.476;2022-09-09T01:16:56;5.73;;;2.47;;
15645;SDS011;7922;43.622;1.476;2022-09-09T01:19:40;2.83;;;1.80;;
15645;SDS011;7922;43.622;1.476;2022-09-09T01:27:52;7.03;;;2.53;;
15645;SDS011;7922;43.622;1.476;2022-09-09T01:30:21;4.53;;;2.03;;
15645;SDS011;7922;43.622;1.476;2022-09-09T01:32:49;2.77;;;2.00;;
15645;SDS011;7922;43.622;1.476;2022-09-09T01:38:02;4.93;;;2.00;;
15645;SDS011;7922;43.622;1.476;2022-09-09T01:40:28;3.87;;;2.07;;
15645;SDS011;7922;43.622;1.476;2022-09-09T01:42:53;3.77;;;2.20;;
15645;SDS011;7922;43.622;1.476;2022-09-09T01:45:20;3.87;;;1.87;;
15645;SDS011;7922;43.622;1.476;2022-09-09T01:47:47;3.37;;;2.00;;
15645;SDS011;7922;43.622;1.476;2022-09-09T01:50:14;3.53;;;1.90;;
15645;SDS011;7922;43.622;1.476;2022-09-09T01:52:41;4.30;;;2.40;;
15645;SDS011;7922;43.622;1.476;2022-09-09T01:55:09;4.97;;;1.73;;
15645;SDS011;7922;43.622;1.476;2022-09-09T02:00:31;3.13;;;2.00;;
15645;SDS011;7922;43.622;1.476;2022-09-09T02:03:05;3.53;;;1.70;;
15645;SDS011;7922;43.622;1.476;2022-09-09T02:08:26;2.63;;;1.73;;
15645;SDS011;7922;43.622;1.476;2022-09-09T02:11:15;2.47;;;1.53;;
15645;SDS011;7922;43.622;1.476;2022-09-09T02:13:43;3.57;;;2.07;;
15645;SDS011;7922;43.622;1.476;2022-09-09T02:16:22;4.37;;;1.93;;
15645;SDS011;7922;43.622;1.476;2022-09-09T02:19:11;5.20;;;2.13;;
15645;SDS011;7922;43.622;1.476;2022-09-09T02:21:42;4.43;;;2.10;;
15645;SDS011;7922;43.622;1.476;2022-09-09T02:24:10;3.30;;;1.80;;
15645;SDS011;7922;43.622;1.476;2022-09-09T02:26:41;3.50;;;2.13;;
15645;SDS011;7922;43.622;1.476;2022-09-09T02:29:14;3.53;;;1.80;;
15645;SDS011;7922;43.622;1.476;2022-09-09T02:31:43;3.63;;;1.83;;
15645;SDS011;7922;43.622;1.476;2022-09-09T02:34:10;3.30;;;1.70;;
15645;SDS011;7922;43.622;1.476;2022-09-09T02:36:38;5.80;;;2.07;;
15645;SDS011;7922;43.622;1.476;2022-09-09T02:39:08;2.53;;;1.63;;
15645;SDS011;7922;43.622;1.476;2022-09-09T02:41:36;3.00;;;1.70;;
15645;SDS011;7922;43.622;1.476;2022-09-09T02:44:14;3.37;;;1.90;;
15645;SDS011;7922;43.622;1.476;2022-09-09T02:52:36;3.77;;;1.67;;
15645;SDS011;7922;43.622;1.476;2022-09-09T02:55:29;3.40;;;1.83;;
15645;SDS011;7922;43.622;1.476;2022-09-09T02:57:59;2.67;;;2.03;;
15645;SDS011;7922;43.622;1.476;2022-09-09T03:00:29;4.67;;;1.50;;
15645;SDS011;7922;43.622;1.476;2022-09-09T03:02:55;2.73;;;1.50;;
15645;SDS011;7922;43.622;1.476;2022-09-09T03:05:21;3.73;;;1.77;;
15645;SDS011;7922;43.622;1.476;2022-09-09T03:07:47;3.47;;;1.67;;
15645;SDS011;7922;43.622;1.476;2022-09-09T03:10:14;3.87;;;1.60;;
15645;SDS011;7922;43.622;1.476;2022-09-09T03:12:40;4.37;;;1.70;;
15645;SDS011;7922;43.622;1.476;2022-09-09T03:15:06;6.50;;;1.53;;
15645;SDS011;7922;43.622;1.476;2022-09-09T03:17:32;3.07;;;1.73;;
15645;SDS011;7922;43.622;1.476;2022-09-09T03:19:58;5.73;;;2.00;;
15645;SDS011;7922;43.622;1.476;2022-09-09T03:22:24;3.60;;;1.47;;
15645;SDS011;7922;43.622;1.476;2022-09-09T03:24:50;6.43;;;2.03;;
15645;SDS011;7922;43.622;1.476;2022-09-09T03:27:16;2.13;;;1.60;;
15645;SDS011;7922;43.622;1.476;2022-09-09T03:29:44;2.40;;;1.40;;
15645;SDS011;7922;43.622;1.476;2022-09-09T03:32:11;2.70;;;1.70;;
15645;SDS011;7922;43.622;1.476;2022-09-09T03:34:37;2.40;;;1.50;;
15645;SDS011;7922;43.622;1.476;2022-09-09T03:37:05;2.73;;;1.60;;
15645;SDS011;7922;43.622;1.476;2022-09-09T03:39:31;3.30;;;1.43;;
15645;SDS011;7922;43.622;1.476;2022-09-09T03:41:57;4.57;;;2.03;;
15645;SDS011;7922;43.622;1.476;2022-09-09T03:44:22;3.50;;;1.70;;
15645;SDS011;7922;43.622;1.476;2022-09-09T03:46:48;4.63;;;1.87;;
15645;SDS011;7922;43.622;1.476;2022-09-09T03:49:14;1.93;;;1.30;;
15645;SDS011;7922;43.622;1.476;2022-09-09T03:51:40;3.27;;;1.77;;
15645;SDS011;7922;43.622;1.476;2022-09-09T03:54:06;1.97;;;1.43;;
15645;SDS011;7922;43.622;1.476;2022-09-09T03:56:35;2.73;;;1.60;;
15645;SDS011;7922;43.622;1.476;2022-09-09T03:59:01;2.00;;;1.80;;
15645;SDS011;7922;43.622;1.476;2022-09-09T04:01:27;1.93;;;1.30;;
15645;SDS011;7922;43.622;1.476;2022-09-09T04:03:54;4.20;;;1.93;;
15645;SDS011;7922;43.622;1.476;2022-09-09T04:06:23;5.17;;;1.80;;
15645;SDS011;7922;43.622;1.476;2022-09-09T04:08:49;2.87;;;1.60;;
15645;SDS011;7922;43.622;1.476;2022-09-09T04:11:17;2.33;;;1.60;;
15645;SDS011;7922;43.622;1.476;2022-09-09T04:13:43;3.73;;;1.80;;
15645;SDS011;7922;43.622;1.476;2022-09-09T04:16:09;3.73;;;1.70;;
15645;SDS011;7922;43.622;1.476;2022-09-09T04:18:38;4.80;;;1.87;;
15645;SDS011;7922;43.622;1.476;2022-09-09T04:21:04;1.83;;;1.60;;
15645;SDS011;7922;43.622;1.476;2022-09-09T04:23:31;2.67;;;1.67;;
15645;SDS011;7922;43.622;1.476;2022-09-09T04:25:59;3.97;;;1.57;;
15645;SDS011;7922;43.622;1.476;2022-09-09T04:28:28;4.53;;;2.00;;
15645;SDS011;7922;43.622;1.476;2022-09-09T04:30:55;3.77;;;1.60;;
15645;SDS011;7922;43.622;1.476;2022-09-09T04:33:25;2.67;;;1.97;;
15645;SDS011;7922;43.622;1.476;2022-09-09T04:35:52;3.00;;;1.63;;
15645;SDS011;7922;43.622;1.476;2022-09-09T04:38:19;3.20;;;1.80;;
15645;SDS011;7922;43.622;1.476;2022-09-09T04:40:48;2.80;;;1.90;;
15645;SDS011;7922;43.622;1.476;2022-09-09T04:43:16;2.50;;;1.50;;
15645;SDS011;7922;43.622;1.476;2022-09-09T04:45:43;3.53;;;1.70;;
15645;SDS011;7922;43.622;1.476;2022-09-09T04:48:12;3.70;;;1.53;;
15645;SDS011;7922;43.622;1.476;2022-09-09T04:50:37;2.43;;;1.80;;
15645;SDS011;7922;43.622;1.476;2022-09-09T04:53:04;3.17;;;1.90;;
15645;SDS011;7922;43.622;1.476;2022-09-09T04:55:30;4.60;;;1.90;;
15645;SDS011;7922;43.622;1.476;2022-09-09T04:57:56;3.30;;;1.60;;
15645;SDS011;7922;43.622;1.476;2022-09-09T05:00:25;2.63;;;1.40;;
15645;SDS011;7922;43.622;1.476;2022-09-09T05:02:51;3.20;;;1.73;;
15645;SDS011;7922;43.622;1.476;2022-09-09T05:05:16;3.43;;;1.70;;
15645;SDS011;7922;43.622;1.476;2022-09-09T05:07:43;2.57;;;1.73;;
15645;SDS011;7922;43.622;1.476;2022-09-09T05:10:09;3.43;;;1.57;;
15645;SDS011;7922;43.622;1.476;2022-09-09T05:12:35;2.33;;;1.70;;
15645;SDS011;7922;43.622;1.476;2022-09-09T05:15:01;3.37;;;1.90;;
15645;SDS011;7922;43.622;1.476;2022-09-09T05:17:27;1.70;;;1.40;;
15645;SDS011;7922;43.622;1.476;2022-09-09T05:19:52;3.27;;;1.77;;
15645;SDS011;7922;43.622;1.476;2022-09-09T05:22:19;1.83;;;1.47;;
15645;SDS011;7922;43.622;1.476;2022-09-09T05:24:46;2.63;;;1.63;;
15645;SDS011;7922;43.622;1.476;2022-09-09T05:27:12;2.90;;;1.60;;
15645;SDS011;7922;43.622;1.476;2022-09-09T05:29:38;2.50;;;1.90;;
15645;SDS011;7922;43.622;1.476;2022-09-09T05:32:04;2.47;;;1.67;;
15645;SDS011;7922;43.622;1.476;2022-09-09T05:34:30;3.43;;;1.70;;
15645;SDS011;7922;43.622;1.476;2022-09-09T05:36:55;2.87;;;1.60;;
15645;SDS011;7922;43.622;1.476;2022-09-09T05:39:21;3.57;;;1.60;;
15645;SDS011;7922;43.622;1.476;2022-09-09T05:41:47;2.53;;;1.60;;
15645;SDS011;7922;43.622;1.476;2022-09-09T05:44:12;2.03;;;1.53;;
15645;SDS011;7922;43.622;1.476;2022-09-09T05:46:38;3.27;;;2.10;;
15645;SDS011;7922;43.622;1.476;2022-09-09T05:49:04;3.83;;;1.70;;
15645;SDS011;7922;43.622;1.476;2022-09-09T05:51:33;3.37;;;1.97;;
15645;SDS011;7922;43.622;1.476;2022-09-09T05:53:59;4.10;;;1.70;;
15645;SDS011;7922;43.622;1.476;2022-09-09T05:56:25;3.30;;;1.90;;
15645;SDS011;7922;43.622;1.476;2022-09-09T05:58:53;3.63;;;1.97;;
15645;SDS011;7922;43.622;1.476;2022-09-09T06:01:26;2.73;;;1.67;;
15645;SDS011;7922;43.622;1.476;2022-09-09T06:03:53;3.83;;;2.10;;
15645;SDS011;7922;43.622;1.476;2022-09-09T06:06:21;3.92;;;2.22;;
15645;SDS011;7922;43.622;1.476;2022-09-09T06:08:53;2.83;;;1.93;;
15645;SDS011;7922;43.622;1.476;2022-09-09T06:11:27;3.20;;;1.97;;
15645;SDS011;7922;43.622;1.476;2022-09-09T06:13:58;3.77;;;2.07;;
15645;SDS011;7922;43.622;1.476;2022-09-09T06:16:25;4.23;;;2.00;;
15645;SDS011;7922;43.622;1.476;2022-09-09T06:18:55;4.00;;;2.10;;
15645;SDS011;7922;43.622;1.476;2022-09-09T06:23:52;2.77;;;1.80;;
15645;SDS011;7922;43.622;1.476;2022-09-09T06:26:19;5.10;;;2.37;;
15645;SDS011;7922;43.622;1.476;2022-09-09T06:28:48;4.83;;;2.30;;
15645;SDS011;7922;43.622;1.476;2022-09-09T06:31:15;4.80;;;2.13;;
15645;SDS011;7922;43.622;1.476;2022-09-09T06:33:42;3.77;;;2.47;;
15645;SDS011;7922;43.622;1.476;2022-09-09T06:36:11;5.33;;;2.27;;
15645;SDS011;7922;43.622;1.476;2022-09-09T06:38:38;4.13;;;2.27;;
15645;SDS011;7922;43.622;1.476;2022-09-09T06:41:04;2.67;;;2.13;;
15645;SDS011;7922;43.622;1.476;2022-09-09T06:43:30;4.70;;;2.60;;
15645;SDS011;7922;43.622;1.476;2022-09-09T06:46:01;3.60;;;2.33;;
15645;SDS011;7922;43.622;1.476;2022-09-09T06:48:29;5.30;;;2.57;;
15645;SDS011;7922;43.622;1.476;2022-09-09T06:51:05;4.23;;;2.70;;
15645;SDS011;7922;43.622;1.476;2022-09-09T06:53:33;4.40;;;2.30;;
15645;SDS011;7922;43.622;1.476;2022-09-09T06:56:23;4.30;;;2.27;;
15645;SDS011;7922;43.622;1.476;2022-09-09T06:58:53;2.53;;;2.10;;
15645;SDS011;7922;43.622;1.476;2022-09-09T07:01:20;3.70;;;2.10;;
15645;SDS011;7922;43.622;1.476;2022-09-09T07:03:49;4.27;;;2.23;;
15645;SDS011;7922;43.622;1.476;2022-09-09T07:06:17;4.97;;;2.50;;
15645;SDS011;7922;43.622;1.476;2022-09-09T07:08:49;2.80;;;2.00;;
15645;SDS011;7922;43.622;1.476;2022-09-09T07:11:20;3.57;;;2.40;;
15645;SDS011;7922;43.622;1.476;2022-09-09T07:13:47;3.17;;;2.53;;
15645;SDS011;7922;43.622;1.476;2022-09-09T07:16:14;3.40;;;2.03;;
15645;SDS011;7922;43.622;1.476;2022-09-09T07:18:44;3.67;;;2.13;;
15645;SDS011;7922;43.622;1.476;2022-09-09T07:21:10;2.70;;;2.20;;
15645;SDS011;7922;43.622;1.476;2022-09-09T07:23:39;4.60;;;2.10;;
15645;SDS011;7922;43.622;1.476;2022-09-09T07:26:14;3.37;;;2.20;;
15645;SDS011;7922;43.622;1.476;2022-09-09T07:28:42;5.37;;;2.50;;
15645;SDS011;7922;43.622;1.476;2022-09-09T07:31:15;2.63;;;2.13;;
15645;SDS011;7922;43.622;1.476;2022-09-09T07:33:43;9.57;;;2.77;;
15645;SDS011;7922;43.622;1.476;2022-09-09T07:36:10;5.20;;;2.63;;
15645;SDS011;7922;43.622;1.476;2022-09-09T07:38:41;3.50;;;2.10;;
15645;SDS011;7922;43.622;1.476;2022-09-09T07:41:10;7.63;;;2.67;;
15645;SDS011;7922;43.622;1.476;2022-09-09T07:43:39;4.40;;;2.60;;
15645;SDS011;7922;43.622;1.476;2022-09-09T07:46:05;5.20;;;2.80;;
15645;SDS011;7922;43.622;1.476;2022-09-09T07:48:32;3.27;;;2.97;;
15645;SDS011;7922;43.622;1.476;2022-09-09T07:51:05;4.83;;;2.60;;
15645;SDS011;7922;43.622;1.476;2022-09-09T07:53:33;3.50;;;2.60;;
15645;SDS011;7922;43.622;1.476;2022-09-09T07:56:05;5.07;;;2.63;;
15645;SDS011;7922;43.622;1.476;2022-09-09T07:58:39;2.33;;;2.00;;
15645;SDS011;7922;43.622;1.476;2022-09-09T08:01:09;4.50;;;2.00;;
15645;SDS011;7922;43.622;1.476;2022-09-09T08:03:39;2.30;;;2.10;;
15645;SDS011;7922;43.622;1.476;2022-09-09T08:06:06;4.40;;;2.40;;
15645;SDS011;7922;43.622;1.476;2022-09-09T08:08:34;3.90;;;2.40;;
15645;SDS011;7922;43.622;1.476;2022-09-09T08:11:05;4.93;;;2.63;;
15645;SDS011;7922;43.622;1.476;2022-09-09T08:13:36;4.93;;;2.30;;
15645;SDS011;7922;43.622;1.476;2022-09-09T08:16:07;6.37;;;2.20;;
15645;SDS011;7922;43.622;1.476;2022-09-09T08:18:37;2.40;;;2.20;;
15645;SDS011;7922;43.622;1.476;2022-09-09T08:23:34;4.50;;;3.00;;
15645;SDS011;7922;43.622;1.476;2022-09-09T08:26:04;4.13;;;2.40;;
15645;SDS011;7922;43.622;1.476;2022-09-09T08:28:31;3.77;;;2.50;;
15645;SDS011;7922;43.622;1.476;2022-09-09T08:31:04;3.63;;;2.80;;
15645;SDS011;7922;43.622;1.476;2022-09-09T08:33:41;4.00;;;2.90;;
15645;SDS011;7922;43.622;1.476;2022-09-09T08:36:09;5.00;;;2.90;;
15645;SDS011;7922;43.622;1.476;2022-09-09T08:38:37;4.00;;;2.87;;
15645;SDS011;7922;43.622;1.476;2022-09-09T08:41:26;4.53;;;3.00;;
15645;SDS011;7922;43.622;1.476;2022-09-09T08:51:48;5.00;;;3.30;;
15645;SDS011;7922;43.622;1.476;2022-09-09T08:54:14;3.40;;;3.10;;
15645;SDS011;7922;43.622;1.476;2022-09-09T08:56:40;3.10;;;2.80;;
15645;SDS011;7922;43.622;1.476;2022-09-09T08:59:07;4.77;;;4.00;;
15645;SDS011;7922;43.622;1.476;2022-09-09T09:13:04;2.97;;;1.43;;
15645;SDS011;7922;43.622;1.476;2022-09-09T09:15:46;1.60;;;1.50;;
15645;SDS011;7922;43.622;1.476;2022-09-09T09:18:17;2.97;;;1.53;;
15645;SDS011;7922;43.622;1.476;2022-09-09T09:23:52;9.97;;;1.70;;
15645;SDS011;7922;43.622;1.476;2022-09-09T09:26:22;2.77;;;1.50;;
15645;SDS011;7922;43.622;1.476;2022-09-09T09:28:51;1.50;;;1.37;;
15645;SDS011;7922;43.622;1.476;2022-09-09T09:31:21;3.50;;;1.70;;
15645;SDS011;7922;43.622;1.476;2022-09-09T09:33:51;4.43;;;1.70;;
15645;SDS011;7922;43.622;1.476;2022-09-09T09:36:20;3.20;;;1.40;;
15645;SDS011;7922;43.622;1.476;2022-09-09T09:38:51;4.00;;;1.53;;
15645;SDS011;7922;43.622;1.476;2022-09-09T09:41:28;3.30;;;1.57;;
15645;SDS011;7922;43.622;1.476;2022-09-09T09:46:49;2.53;;;1.47;;
15645;SDS011;7922;43.622;1.476;2022-09-09T09:49:15;2.63;;;1.43;;
15645;SDS011;7922;43.622;1.476;2022-09-09T09:51:42;3.50;;;1.90;;
15645;SDS011;7922;43.622;1.476;2022-09-09T09:56:53;4.20;;;1.90;;
15645;SDS011;7922;43.622;1.476;2022-09-09T09:59:20;2.90;;;1.87;;
15645;SDS011;7922;43.622;1.476;2022-09-09T10:01:53;2.73;;;1.70;;
15645;SDS011;7922;43.622;1.476;2022-09-09T10:04:22;1.60;;;1.50;;
15645;SDS011;7922;43.622;1.476;2022-09-09T10:06:48;4.13;;;1.60;;
15645;SDS011;7922;43.622;1.476;2022-09-09T10:09:20;3.83;;;1.70;;
15645;SDS011;7922;43.622;1.476;2022-09-09T10:19:42;3.50;;;1.90;;
15645;SDS011;7922;43.622;1.476;2022-09-09T10:24:56;2.20;;;1.77;;
15645;SDS011;7922;43.622;1.476;2022-09-09T10:30:40;3.83;;;1.90;;
15645;SDS011;7922;43.622;1.476;2022-09-09T10:36:23;3.67;;;1.70;;
15645;SDS011;7922;43.622;1.476;2022-09-09T10:39:03;4.23;;;1.83;;
15645;SDS011;7922;43.622;1.476;2022-09-09T10:41:44;2.97;;;1.87;;
15645;SDS011;7922;43.622;1.476;2022-09-09T10:47:22;2.30;;;1.60;;
15645;SDS011;7922;43.622;1.476;2022-09-09T10:57:39;2.20;;;1.73;;
15645;SDS011;7922;43.622;1.476;2022-09-09T11:00:18;4.47;;;2.10;;
15645;SDS011;7922;43.622;1.476;2022-09-09T11:02:44;3.77;;;1.50;;
15645;SDS011;7922;43.622;1.476;2022-09-09T11:05:31;3.13;;;1.50;;
15645;SDS011;7922;43.622;1.476;2022-09-09T11:08:04;2.20;;;1.53;;
15645;SDS011;7922;43.622;1.476;2022-09-09T11:18:43;2.20;;;1.60;;
15645;SDS011;7922;43.622;1.476;2022-09-09T11:21:15;4.93;;;1.80;;
15645;SDS011;7922;43.622;1.476;2022-09-09T11:23:58;2.23;;;1.60;;
15645;SDS011;7922;43.622;1.476;2022-09-09T11:26:51;2.87;;;1.57;;
15645;SDS011;7922;43.622;1.476;2022-09-09T11:29:38;2.30;;;1.43;;
15645;SDS011;7922;43.622;1.476;2022-09-09T11:38:08;2.40;;;1.50;;
15645;SDS011;7922;43.622;1.476;2022-09-09T11:40:43;4.60;;;1.87;;
15645;SDS011;7922;43.622;1.476;2022-09-09T11:45:53;4.40;;;1.90;;
15645;SDS011;7922;43.622;1.476;2022-09-09T11:51:31;4.37;;;2.20;;
15645;SDS011;7922;43.622;1.476;2022-09-09T11:54:01;2.93;;;1.90;;
15645;SDS011;7922;43.622;1.476;2022-09-09T11:56:47;4.13;;;2.00;;
15645;SDS011;7922;43.622;1.476;2022-09-09T11:59:20;3.57;;;1.80;;
15645;SDS011;7922;43.622;1.476;2022-09-09T12:02:02;3.03;;;1.90;;
15645;SDS011;7922;43.622;1.476;2022-09-09T12:07:27;4.83;;;1.70;;
15645;SDS011;7922;43.622;1.476;2022-09-09T12:10:03;4.17;;;2.27;;
15645;SDS011;7922;43.622;1.476;2022-09-09T12:12:45;4.73;;;1.90;;
15645;SDS011;7922;43.622;1.476;2022-09-09T12:17:46;6.80;;;1.87;;
15645;SDS011;7922;43.622;1.476;2022-09-09T12:31:09;3.50;;;1.60;;
15645;SDS011;7922;43.622;1.476;2022-09-09T12:33:42;4.20;;;2.03;;
15645;SDS011;7922;43.622;1.476;2022-09-09T12:36:18;5.73;;;2.13;;
15645;SDS011;7922;43.622;1.476;2022-09-09T12:38:52;3.57;;;1.97;;
15645;SDS011;7922;43.622;1.476;2022-09-09T12:41:24;7.00;;;2.20;;
15645;SDS011;7922;43.622;1.476;2022-09-09T12:43:51;2.80;;;1.47;;
15645;SDS011;7922;43.622;1.476;2022-09-09T12:46:35;3.77;;;1.67;;
15645;SDS011;7922;43.622;1.476;2022-09-09T12:49:05;3.33;;;1.50;;
15645;SDS011;7922;43.622;1.476;2022-09-09T12:51:49;3.83;;;1.53;;
15645;SDS011;7922;43.622;1.476;2022-09-09T12:54:15;4.47;;;1.20;;
15645;SDS011;7922;43.622;1.476;2022-09-09T12:56:44;3.53;;;1.93;;
15645;SDS011;7922;43.622;1.476;2022-09-09T12:59:26;5.27;;;1.73;;
15645;SDS011;7922;43.622;1.476;2022-09-09T13:02:00;4.23;;;1.57;;
15645;SDS011;7922;43.622;1.476;2022-09-09T13:04:25;3.73;;;1.40;;
15645;SDS011;7922;43.622;1.476;2022-09-09T13:06:51;4.60;;;1.60;;
15645;SDS011;7922;43.622;1.476;2022-09-09T13:09:17;2.77;;;1.47;;
15645;SDS011;7922;43.622;1.476;2022-09-09T13:11:45;3.53;;;1.50;;
15645;SDS011;7922;43.622;1.476;2022-09-09T13:14:19;3.43;;;1.33;;
15645;SDS011;7922;43.622;1.476;2022-09-09T13:16:59;4.87;;;1.70;;
15645;SDS011;7922;43.622;1.476;2022-09-09T13:19:29;5.00;;;1.27;;
15645;SDS011;7922;43.622;1.476;2022-09-09T13:21:58;4.87;;;1.63;;
15645;SDS011;7922;43.622;1.476;2022-09-09T13:24:26;7.07;;;1.53;;
15645;SDS011;7922;43.622;1.476;2022-09-09T13:26:55;4.90;;;1.53;;
15645;SDS011;7922;43.622;1.476;2022-09-09T13:29:27;3.17;;;1.50;;
15645;SDS011;7922;43.622;1.476;2022-09-09T13:31:53;2.37;;;1.50;;
15645;SDS011;7922;43.622;1.476;2022-09-09T13:34:29;6.43;;;1.80;;
15645;SDS011;7922;43.622;1.476;2022-09-09T13:37:00;5.10;;;1.50;;
15645;SDS011;7922;43.622;1.476;2022-09-09T13:39:27;3.37;;;1.30;;
15645;SDS011;7922;43.622;1.476;2022-09-09T13:41:53;2.63;;;1.40;;
15645;SDS011;7922;43.622;1.476;2022-09-09T13:44:27;2.70;;;1.40;;
15645;SDS011;7922;43.622;1.476;2022-09-09T13:47:02;4.60;;;1.63;;
15645;SDS011;7922;43.622;1.476;2022-09-09T13:49:29;4.13;;;1.50;;
15645;SDS011;7922;43.622;1.476;2022-09-09T13:52:05;3.63;;;1.67;;
15645;SDS011;7922;43.622;1.476;2022-09-09T13:54:36;3.63;;;1.60;;
15645;SDS011;7922;43.622;1.476;2022-09-09T13:57:02;2.30;;;1.50;;
15645;SDS011;7922;43.622;1.476;2022-09-09T13:59:29;3.67;;;1.40;;
15645;SDS011;7922;43.622;1.476;2022-09-09T14:01:56;2.47;;;1.47;;
15645;SDS011;7922;43.622;1.476;2022-09-09T14:04:22;3.37;;;1.47;;
15645;SDS011;7922;43.622;1.476;2022-09-09T14:06:48;6.30;;;1.77;;
15645;SDS011;7922;43.622;1.476;2022-09-09T14:09:15;5.50;;;1.80;;
15645;SDS011;7922;43.622;1.476;2022-09-09T14:11:43;5.33;;;1.50;;
15645;SDS011;7922;43.622;1.476;2022-09-09T14:14:10;4.30;;;2.30;;
15645;SDS011;7922;43.622;1.476;2022-09-09T14:16:36;2.93;;;1.67;;
15645;SDS011;7922;43.622;1.476;2022-09-09T14:19:03;3.37;;;1.33;;
15645;SDS011;7922;43.622;1.476;2022-09-09T14:21:29;3.97;;;1.40;;
15645;SDS011;7922;43.622;1.476;2022-09-09T14:23:54;3.80;;;1.70;;
15645;SDS011;7922;43.622;1.476;2022-09-09T14:26:22;4.33;;;1.43;;
15645;SDS011;7922;43.622;1.476;2022-09-09T14:28:49;5.37;;;1.50;;
15645;SDS011;7922;43.622;1.476;2022-09-09T14:31:15;4.37;;;1.60;;
15645;SDS011;7922;43.622;1.476;2022-09-09T14:33:42;3.90;;;1.30;;
15645;SDS011;7922;43.622;1.476;2022-09-09T14:36:09;3.77;;;1.63;;
15645;SDS011;7922;43.622;1.476;2022-09-09T14:38:35;3.50;;;1.47;;
15645;SDS011;7922;43.622;1.476;2022-09-09T14:41:05;3.77;;;1.33;;
15645;SDS011;7922;43.622;1.476;2022-09-09T14:43:31;5.27;;;2.03;;
15645;SDS011;7922;43.622;1.476;2022-09-09T14:45:58;3.53;;;1.37;;
15645;SDS011;7922;43.622;1.476;2022-09-09T14:48:36;2.80;;;1.57;;
15645;SDS011;7922;43.622;1.476;2022-09-09T14:51:13;2.90;;;1.43;;
15645;SDS011;7922;43.622;1.476;2022-09-09T14:53:47;6.50;;;2.17;;
15645;SDS011;7922;43.622;1.476;2022-09-09T14:56:16;1.83;;;1.27;;
15645;SDS011;7922;43.622;1.476;2022-09-09T14:58:43;2.73;;;1.37;;
15645;SDS011;7922;43.622;1.476;2022-09-09T15:01:11;4.77;;;1.63;;
15645;SDS011;7922;43.622;1.476;2022-09-09T15:03:39;3.40;;;1.43;;
15645;SDS011;7922;43.622;1.476;2022-09-09T15:06:14;2.77;;;1.43;;
15645;SDS011;7922;43.622;1.476;2022-09-09T15:08:41;5.77;;;1.80;;
15645;SDS011;7922;43.622;1.476;2022-09-09T15:11:09;4.73;;;1.60;;
15645;SDS011;7922;43.622;1.476;2022-09-09T15:13:36;3.30;;;1.47;;
15645;SDS011;7922;43.622;1.476;2022-09-09T15:16:06;2.40;;;1.33;;
15645;SDS011;7922;43.622;1.476;2022-09-09T15:18:34;4.77;;;1.60;;
15645;SDS011;7922;43.622;1.476;2022-09-09T15:21:01;4.33;;;1.93;;
15645;SDS011;7922;43.622;1.476;2022-09-09T15:23:33;2.90;;;1.47;;
15645;SDS011;7922;43.622;1.476;2022-09-09T15:26:00;4.43;;;1.70;;
15645;SDS011;7922;43.622;1.476;2022-09-09T15:28:26;3.13;;;1.47;;
15645;SDS011;7922;43.622;1.476;2022-09-09T15:30:52;4.03;;;1.50;;
15645;SDS011;7922;43.622;1.476;2022-09-09T15:33:19;4.33;;;1.77;;
15645;SDS011;7922;43.622;1.476;2022-09-09T15:35:46;3.27;;;1.40;;
15645;SDS011;7922;43.622;1.476;2022-09-09T15:38:14;5.97;;;1.40;;
15645;SDS011;7922;43.622;1.476;2022-09-09T15:40:40;3.67;;;1.33;;
15645;SDS011;7922;43.622;1.476;2022-09-09T15:43:06;5.70;;;1.57;;
15645;SDS011;7922;43.622;1.476;2022-09-09T15:45:33;4.77;;;1.33;;
15645;SDS011;7922;43.622;1.476;2022-09-09T15:48:02;3.63;;;1.50;;
15645;SDS011;7922;43.622;1.476;2022-09-09T15:50:29;4.60;;;1.80;;
15645;SDS011;7922;43.622;1.476;2022-09-09T15:52:58;3.87;;;1.80;;
15645;SDS011;7922;43.622;1.476;2022-09-09T15:55:24;6.00;;;1.60;;
15645;SDS011;7922;43.622;1.476;2022-09-09T15:57:50;2.57;;;1.40;;
15645;SDS011;7922;43.622;1.476;2022-09-09T16:00:18;3.57;;;1.57;;
15645;SDS011;7922;43.622;1.476;2022-09-09T16:02:44;6.10;;;1.50;;
15645;SDS011;7922;43.622;1.476;2022-09-09T16:05:11;3.03;;;1.73;;
15645;SDS011;7922;43.622;1.476;2022-09-09T16:07:37;4.57;;;1.43;;
15645;SDS011;7922;43.622;1.476;2022-09-09T16:10:03;4.63;;;1.57;;
15645;SDS011;7922;43.622;1.476;2022-09-09T16:12:29;5.50;;;1.60;;
15645;SDS011;7922;43.622;1.476;2022-09-09T16:14:54;3.07;;;1.50;;
15645;SDS011;7922;43.622;1.476;2022-09-09T16:17:20;7.77;;;1.83;;
15645;SDS011;7922;43.622;1.476;2022-09-09T16:19:46;2.50;;;1.17;;
15645;SDS011;7922;43.622;1.476;2022-09-09T16:22:12;3.43;;;1.60;;
15645;SDS011;7922;43.622;1.476;2022-09-09T16:24:40;2.30;;;1.30;;
15645;SDS011;7922;43.622;1.476;2022-09-09T16:27:06;3.27;;;1.43;;
15645;SDS011;7922;43.622;1.476;2022-09-09T16:29:31;3.43;;;1.60;;
15645;SDS011;7922;43.622;1.476;2022-09-09T16:31:57;5.20;;;1.77;;
15645;SDS011;7922;43.622;1.476;2022-09-09T16:34:25;2.73;;;1.20;;
15645;SDS011;7922;43.622;1.476;2022-09-09T16:36:50;5.87;;;1.77;;
15645;SDS011;7922;43.622;1.476;2022-09-09T16:39:17;3.77;;;1.53;;
15645;SDS011;7922;43.622;1.476;2022-09-09T16:41:46;2.80;;;1.23;;
15645;SDS011;7922;43.622;1.476;2022-09-09T16:44:13;4.37;;;1.83;;
15645;SDS011;7922;43.622;1.476;2022-09-09T16:46:44;4.17;;;1.70;;
15645;SDS011;7922;43.622;1.476;2022-09-09T16:49:13;5.50;;;1.83;;
15645;SDS011;7922;43.622;1.476;2022-09-09T16:51:42;4.77;;;1.77;;
15645;SDS011;7922;43.622;1.476;2022-09-09T16:54:10;2.43;;;1.40;;
15645;SDS011;7922;43.622;1.476;2022-09-09T16:56:39;6.97;;;1.80;;
15645;SDS011;7922;43.622;1.476;2022-09-09T16:59:16;3.87;;;1.67;;
15645;SDS011;7922;43.622;1.476;2022-09-09T17:01:44;3.33;;;1.50;;
15645;SDS011;7922;43.622;1.476;2022-09-09T17:04:15;4.63;;;1.50;;
15645;SDS011;7922;43.622;1.476;2022-09-09T17:06:49;3.77;;;1.50;;
15645;SDS011;7922;43.622;1.476;2022-09-09T17:09:16;4.60;;;1.73;;
15645;SDS011;7922;43.622;1.476;2022-09-09T17:11:43;4.90;;;1.70;;
15645;SDS011;7922;43.622;1.476;2022-09-09T17:14:10;2.23;;;1.37;;
15645;SDS011;7922;43.622;1.476;2022-09-09T17:16:39;5.67;;;1.70;;
15645;SDS011;7922;43.622;1.476;2022-09-09T17:19:05;4.03;;;1.30;;
15645;SDS011;7922;43.622;1.476;2022-09-09T17:21:33;6.07;;;1.93;;
15645;SDS011;7922;43.622;1.476;2022-09-09T17:23:59;3.57;;;1.60;;
15645;SDS011;7922;43.622;1.476;2022-09-09T17:26:26;4.07;;;1.50;;
15645;SDS011;7922;43.622;1.476;2022-09-09T17:28:54;3.20;;;1.60;;
15645;SDS011;7922;43.622;1.476;2022-09-09T17:31:22;2.80;;;1.70;;
15645;SDS011;7922;43.622;1.476;2022-09-09T17:33:48;3.30;;;1.60;;
15645;SDS011;7922;43.622;1.476;2022-09-09T17:36:16;2.80;;;1.57;;
15645;SDS011;7922;43.622;1.476;2022-09-09T17:38:43;2.60;;;1.60;;
15645;SDS011;7922;43.622;1.476;2022-09-09T17:41:10;3.37;;;1.30;;
15645;SDS011;7922;43.622;1.476;2022-09-09T17:43:44;3.30;;;1.47;;
15645;SDS011;7922;43.622;1.476;2022-09-09T17:46:11;2.77;;;1.40;;
15645;SDS011;7922;43.622;1.476;2022-09-09T17:48:39;3.23;;;1.37;;
15645;SDS011;7922;43.622;1.476;2022-09-09T17:51:06;4.80;;;1.60;;
15645;SDS011;7922;43.622;1.476;2022-09-09T17:53:37;3.67;;;1.27;;